Time;durP1;ratioP1;P1;durP2;ratioP2;P2;SDS_P1;SDS_P2;PMS_P1;PMS_P2;Temp;Humidity;BMP_temperature;BMP_pressure;BME280_temperature;BME280_humidity;BME280_pressure;Samples;Min_cycle;Max_cycle;Signal;HPM_P1;HPM_P2
2023/12/03 00:02:18;;;;;;;2.00;1.90;;;;;;;19.66;36.58;101735.69;5030316;28;20965;-66
2023/12/03 00:04:44;;;;;;;1.83;1.73;;;;;;;19.65;36.71;101736.66;5068089;28;20050;-66
2023/12/03 00:07:10;;;;;;;1.98;1.85;;;;;;;19.63;36.70;101736.81;5084504;28;20167;-66
2023/12/03 00:09:39;;;;;;;1.80;1.70;;;;;;;19.54;36.52;101725.34;5032144;28;20204;-66
2023/12/03 00:12:06;;;;;;;1.90;1.80;;;;;;;19.60;36.67;101740.59;5084909;28;20035;-66
2023/12/03 00:14:31;;;;;;;1.80;1.70;;;;;;;19.60;36.61;101743.25;5030949;28;20611;-66
2023/12/03 00:16:57;;;;;;;1.95;1.85;;;;;;;19.61;36.56;101742.25;5065187;28;20144;-66
2023/12/03 00:19:24;;;;;;;2.00;1.80;;;;;;;19.53;36.74;101728.97;5031301;28;20040;-66
2023/12/03 00:21:50;;;;;;;2.00;1.90;;;;;;;19.60;36.77;101747.72;5083593;28;20569;-66
2023/12/03 00:24:16;;;;;;;1.60;1.50;;;;;;;19.53;36.68;101730.78;5035757;28;20051;-66
2023/12/03 00:26:42;;;;;;;1.90;1.80;;;;;;;19.57;36.82;101746.22;5080750;28;20047;-67
2023/12/03 00:29:08;;;;;;;1.77;1.67;;;;;;;19.58;36.69;101742.59;5034354;28;20781;-67
2023/12/03 00:31:34;;;;;;;1.83;1.73;;;;;;;19.59;36.81;101744.22;5084534;28;20044;-67
2023/12/03 00:34:01;;;;;;;2.05;1.70;;;;;;;19.58;36.83;101744.41;5016325;28;20037;-66
2023/12/03 00:36:27;;;;;;;1.92;1.75;;;;;;;19.58;36.67;101744.41;5082339;28;20042;-66
2023/12/03 00:38:52;;;;;;;1.90;1.80;;;;;;;19.55;36.82;101745.50;5030748;28;20025;-67
2023/12/03 00:41:17;;;;;;;1.80;1.70;;;;;;;19.55;36.81;101756.06;5081853;28;20036;-67
2023/12/03 00:43:43;;;;;;;1.73;1.63;;;;;;;19.52;36.83;101747.59;5025521;28;20049;-67
2023/12/03 00:46:08;;;;;;;1.83;1.73;;;;;;;19.55;36.90;101757.88;5082414;28;20032;-67
2023/12/03 00:48:34;;;;;;;1.80;1.70;;;;;;;19.53;36.83;101752.72;5028002;28;20504;-66
2023/12/03 00:50:59;;;;;;;1.70;1.60;;;;;;;19.53;36.78;101757.19;5087135;28;20368;-67
2023/12/03 00:53:25;;;;;;;1.80;1.70;;;;;;;19.50;36.93;101758.31;5032924;28;20581;-67
2023/12/03 00:55:52;;;;;;;1.80;1.67;;;;;;;19.51;36.89;101762.63;5086160;28;20047;-67
2023/12/03 00:58:18;;;;;;;1.80;1.70;;;;;;;19.43;36.81;101748.56;5033385;28;20726;-67
2023/12/03 01:00:43;;;;;;;1.50;1.40;;;;;;;19.50;36.89;101758.31;5095019;28;20035;-67
2023/12/03 01:03:09;;;;;;;1.70;1.60;;;;;;;19.50;36.87;101755.69;5035884;28;21655;-67
2023/12/03 01:05:34;;;;;;;1.60;1.50;;;;;;;19.50;36.86;101762.78;5092503;28;20048;-67
2023/12/03 01:08:00;;;;;;;1.80;1.70;;;;;;;19.26;37.00;101721.19;5050256;28;20062;-67
2023/12/03 01:10:25;;;;;;;1.48;1.38;;;;;;;19.47;36.95;101756.00;5047856;28;20078;-67
2023/12/03 01:12:51;;;;;;;1.90;1.80;;;;;;;19.48;36.81;101762.13;5063243;28;20409;-67
2023/12/03 01:15:16;;;;;;;1.75;1.65;;;;;;;19.47;36.92;101757.81;5083781;28;20033;-67
2023/12/03 01:17:42;;;;;;;1.95;1.77;;;;;;;19.45;36.90;101755.34;5087275;28;20047;-67
2023/12/03 01:20:08;;;;;;;1.83;1.73;;;;;;;19.36;36.87;101742.22;5028822;28;20035;-67
2023/12/03 01:22:34;;;;;;;1.60;1.50;;;;;;;19.48;36.96;101762.13;5088867;28;20755;-67
2023/12/03 01:24:59;;;;;;;1.75;1.65;;;;;;;19.37;36.86;101735.94;5031848;28;20035;-66
2023/12/03 01:27:24;;;;;;;1.73;1.63;;;;;;;19.45;36.85;101757.97;5084420;28;20036;-67
2023/12/03 01:29:50;;;;;;;1.70;1.60;;;;;;;19.44;36.99;101761.59;5028983;28;20093;-67
2023/12/03 01:32:15;;;;;;;1.50;1.40;;;;;;;19.43;36.89;101765.22;5083683;28;20040;-67
2023/12/03 01:34:42;;;;;;;1.75;1.65;;;;;;;19.44;36.95;101766.88;5030853;28;20079;-67
2023/12/03 01:37:08;;;;;;;1.85;1.70;;;;;;;19.35;37.00;101759.88;5082594;28;20085;-67
2023/12/03 01:39:33;;;;;;;1.50;1.40;;;;;;;19.43;36.98;101769.69;5033019;28;20300;-67
2023/12/03 01:41:59;;;;;;;1.52;1.42;;;;;;;19.42;36.91;101779.41;5073116;28;20109;-67
2023/12/03 01:44:24;;;;;;;1.52;1.42;;;;;;;19.41;37.04;101782.22;5011303;28;20064;-67
2023/12/03 01:46:50;;;;;;;1.48;1.38;;;;;;;19.31;37.04;101769.09;5085319;28;20047;-67
2023/12/03 01:49:19;;;;;;;1.40;1.30;;;;;;;19.41;37.02;101788.31;5009124;28;20040;-67
2023/12/03 01:51:45;;;;;;;1.50;1.40;;;;;;;19.40;36.85;101791.13;5079112;28;20043;-67
2023/12/03 01:54:11;;;;;;;1.25;1.25;;;;;;;19.33;37.12;101786.44;5029526;28;20406;-66
2023/12/03 01:56:37;;;;;;;1.35;1.25;;;;;;;19.42;36.97;101800.56;5081896;28;20031;-67
2023/12/03 01:59:02;;;;;;;1.95;1.85;;;;;;;19.49;36.86;101801.59;5028857;28;20050;-67
2023/12/03 02:01:28;;;;;;;1.70;1.60;;;;;;;19.58;36.63;101802.53;5076751;28;20468;-67
2023/12/03 02:03:53;;;;;;;1.38;1.27;;;;;;;19.57;36.77;101796.41;5029382;28;20565;-67
2023/12/03 02:06:19;;;;;;;1.15;1.13;;;;;;;19.60;36.63;101811.94;5079250;28;20067;-66
2023/12/03 02:08:44;;;;;;;1.60;1.50;;;;;;;19.59;36.75;101804.19;5033591;28;20188;-67
2023/12/03 02:11:10;;;;;;;1.38;1.27;;;;;;;19.58;36.73;101813.09;5079323;28;20267;-67
2023/12/03 02:13:38;;;;;;;1.35;1.25;;;;;;;19.54;36.87;101809.91;5031841;28;20608;-67
2023/12/03 02:16:05;;;;;;;1.20;1.10;;;;;;;19.57;36.76;101819.34;5088844;28;20507;-67
2023/12/03 02:18:33;;;;;;;1.50;1.40;;;;;;;19.54;36.75;101823.09;5025501;28;20815;-67
2023/12/03 02:20:58;;;;;;;1.33;1.23;;;;;;;19.52;36.90;101814.47;5088855;28;20019;-67
2023/12/03 02:23:27;;;;;;;1.58;1.48;;;;;;;19.51;36.87;101822.56;5063769;28;20048;-67
2023/12/03 02:25:53;;;;;;;1.65;1.55;;;;;;;19.50;36.86;101819.09;5067918;28;20117;-67
2023/12/03 02:28:18;;;;;;;1.30;1.20;;;;;;;19.49;36.81;101827.16;5030798;28;20041;-67
2023/12/03 02:30:44;;;;;;;1.35;1.25;;;;;;;19.47;36.86;101824.69;5083005;28;20043;-66
2023/12/03 02:33:10;;;;;;;1.40;1.30;;;;;;;19.46;36.95;101833.59;5024560;28;26572;-67
2023/12/03 02:35:35;;;;;;;0.98;0.98;;;;;;;19.43;37.06;101836.53;5089391;28;20720;-66
2023/12/03 02:38:01;;;;;;;1.23;1.20;;;;;;;19.37;36.86;101823.94;5048625;28;20044;-67
2023/12/03 02:40:28;;;;;;;1.63;1.52;;;;;;;19.43;36.89;101833.06;5069608;28;20059;-67
2023/12/03 02:42:54;;;;;;;0.90;0.90;;;;;;;19.45;36.97;101831.94;5061025;28;20122;-66
2023/12/03 02:45:20;;;;;;;1.10;1.10;;;;;;;19.45;36.97;101836.38;5046679;28;20032;-67
2023/12/03 02:47:45;;;;;;;1.13;1.10;;;;;;;19.42;36.96;101842.81;5085351;28;20059;-66
2023/12/03 02:50:11;;;;;;;1.10;1.08;;;;;;;19.42;36.93;101839.34;5032800;28;20044;-67
2023/12/03 02:52:36;;;;;;;1.27;1.17;;;;;;;19.41;36.98;101845.59;5082285;28;20024;-66
2023/12/03 02:55:02;;;;;;;1.05;1.00;;;;;;;19.39;36.92;101856.34;5022658;28;20035;-67
2023/12/03 02:57:27;;;;;;;1.25;1.15;;;;;;;19.40;37.01;101857.16;5084682;28;20073;-67
2023/12/03 02:59:53;;;;;;;1.27;1.17;;;;;;;19.34;37.01;101848.00;5032499;28;20043;-67
2023/12/03 03:02:18;;;;;;;1.40;1.30;;;;;;;19.40;36.99;101859.81;5086700;28;20085;-67
2023/12/03 03:04:44;;;;;;;1.05;1.05;;;;;;;19.39;36.99;101861.63;5014498;28;20036;-67
2023/12/03 03:07:09;;;;;;;1.17;1.17;;;;;;;19.38;36.98;101865.19;5076182;28;20055;-67
2023/12/03 03:09:35;;;;;;;0.82;0.82;;;;;;;19.37;36.86;101863.53;5036120;28;20511;-66
2023/12/03 03:12:00;;;;;;;1.10;1.05;;;;;;;19.36;36.92;101867.16;5078353;28;20039;-66
2023/12/03 03:14:26;;;;;;;1.38;1.27;;;;;;;19.35;36.94;101864.69;5037245;28;20043;-67
2023/12/03 03:16:51;;;;;;;0.90;0.90;;;;;;;19.35;36.88;101867.31;5088910;28;20040;-67
2023/12/03 03:19:17;;;;;;;1.20;1.10;;;;;;;19.29;36.91;101860.84;5024343;28;20802;-66
2023/12/03 03:21:42;;;;;;;1.15;1.08;;;;;;;19.35;36.88;101867.31;5088846;28;20033;-69
2023/12/03 03:24:08;;;;;;;1.02;1.02;;;;;;;19.28;36.94;101857.38;5016977;28;20422;-67
2023/12/03 03:26:33;;;;;;;1.00;1.00;;;;;;;19.32;36.83;101860.53;5089367;28;20051;-67
2023/12/03 03:28:59;;;;;;;1.02;1.02;;;;;;;19.33;36.94;101862.19;5028439;28;20337;-66
2023/12/03 03:31:25;;;;;;;1.17;1.17;;;;;;;19.24;37.01;101856.03;5093824;28;20613;-67
2023/12/03 03:33:50;;;;;;;1.02;1.02;;;;;;;19.28;37.00;101862.66;5073128;28;20061;-66
2023/12/03 03:36:17;;;;;;;0.75;0.75;;;;;;;19.31;37.00;101858.88;5083711;28;20082;-68
2023/12/03 03:38:45;;;;;;;1.15;1.15;;;;;;;19.29;37.04;101866.97;5035377;28;20345;-67
2023/12/03 03:41:11;;;;;;;0.80;0.80;;;;;;;19.27;37.07;101866.28;5076752;28;20108;-66
2023/12/03 03:43:36;;;;;;;1.30;1.20;;;;;;;19.28;36.90;101867.09;5033248;28;20460;-66
2023/12/03 03:46:02;;;;;;;1.40;1.27;;;;;;;19.28;36.96;101869.75;5083214;28;20036;-67
2023/12/03 03:48:28;;;;;;;0.98;0.98;;;;;;;19.21;37.02;101855.47;4997474;28;20787;-67
2023/12/03 03:50:53;;;;;;;1.45;1.35;;;;;;;19.26;36.92;101875.19;5088160;28;20523;-67
2023/12/03 03:53:19;;;;;;;1.30;1.20;;;;;;;19.25;37.03;101878.81;5032058;28;20660;-66
2023/12/03 03:55:45;;;;;;;1.33;1.23;;;;;;;19.15;36.96;101854.28;5083149;28;22207;-66
2023/12/03 03:58:10;;;;;;;2.42;1.35;;;;;;;19.30;36.97;101879.19;5034674;28;20031;-66
2023/12/03 04:00:36;;;;;;;1.63;1.52;;;;;;;19.31;36.96;101869.44;5071062;28;20066;-66
2023/12/03 04:03:02;;;;;;;1.67;1.58;;;;;;;19.34;36.97;101879.69;5059901;28;20122;-67
2023/12/03 04:05:27;;;;;;;1.98;1.75;;;;;;;19.34;36.89;101887.63;5046133;28;20054;-66
2023/12/03 04:07:53;;;;;;;1.80;1.70;;;;;;;19.33;36.93;101884.16;5084733;28;20464;-66
2023/12/03 04:10:19;;;;;;;1.75;1.65;;;;;;;19.30;36.89;101886.28;5033771;28;20044;-66
2023/12/03 04:12:44;;;;;;;2.00;1.80;;;;;;;19.27;36.82;101886.56;5086257;28;20098;-67
2023/12/03 04:15:10;;;;;;;2.13;1.92;;;;;;;19.29;36.98;101885.44;5031599;28;20035;-67
2023/12/03 04:17:36;;;;;;;1.85;1.75;;;;;;;19.28;36.92;101883.78;5082313;28;20036;-67
2023/12/03 04:20:02;;;;;;;2.40;2.10;;;;;;;19.31;36.85;101894.03;5031799;28;20043;-67
2023/12/03 04:22:27;;;;;;;2.42;2.00;;;;;;;19.30;36.91;101894.19;5071853;28;20038;-66
2023/12/03 04:24:53;;;;;;;2.83;2.13;;;;;;;19.29;36.84;101893.38;5034842;28;20521;-67
2023/12/03 04:27:18;;;;;;;2.85;2.38;;;;;;;19.29;36.91;101889.91;5082911;28;20043;-67
2023/12/03 04:29:44;;;;;;;2.50;2.30;;;;;;;19.28;37.39;101898.81;5038193;28;20043;-67
2023/12/03 04:32:09;;;;;;;2.67;2.30;;;;;;;19.26;37.01;101893.66;5080886;28;20094;-67
2023/12/03 04:34:35;;;;;;;2.88;2.30;;;;;;;19.12;36.75;101882.78;5032232;28;20040;-67
2023/12/03 04:37:00;;;;;;;3.00;2.70;;;;;;;19.25;37.08;101907.84;5082049;28;20047;-66
2023/12/03 04:39:26;;;;;;;3.55;2.80;;;;;;;19.14;37.09;101894.84;5034582;28;20032;-67
2023/12/03 04:41:51;;;;;;;3.55;2.67;;;;;;;19.22;37.03;101907.34;5087646;28;20426;-67
2023/12/03 04:44:17;;;;;;;3.50;2.95;;;;;;;19.24;37.06;101908.00;5062022;28;20097;-66
2023/12/03 04:46:43;;;;;;;3.17;2.88;;;;;;;19.26;37.06;101913.97;5060739;28;20044;-66
2023/12/03 04:49:09;;;;;;;3.40;2.80;;;;;;;19.20;36.95;101907.44;5035776;28;20039;-66
2023/12/03 04:51:35;;;;;;;3.25;2.95;;;;;;;19.21;36.97;101911.78;5077647;28;20700;-67
2023/12/03 04:54:00;;;;;;;3.80;3.40;;;;;;;19.22;36.97;101918.72;5034593;28;20043;-67
2023/12/03 04:56:26;;;;;;;3.88;3.38;;;;;;;19.22;37.13;101921.38;5077552;28;20032;-67
2023/12/03 04:58:51;;;;;;;4.10;3.17;;;;;;;19.30;36.88;101918.78;5026921;28;20611;-67
2023/12/03 05:01:17;;;;;;;3.90;3.40;;;;;;;19.44;36.76;101911.34;5075098;28;20057;-68
2023/12/03 05:03:44;;;;;;;3.30;2.83;;;;;;;19.49;36.55;101909.06;5024787;28;20033;-68
2023/12/03 05:06:10;;;;;;;3.72;3.17;;;;;;;19.51;36.54;101915.03;5083084;28;20040;-69
2023/12/03 05:08:35;;;;;;;3.80;3.20;;;;;;;19.50;36.64;101913.38;5029618;28;20787;-66
2023/12/03 05:11:05;;;;;;;4.15;3.17;;;;;;;19.49;36.71;101911.72;5084785;28;20027;-66
2023/12/03 05:13:34;;;;;;;3.85;3.45;;;;;;;19.38;36.67;101899.53;5022937;28;20487;-66
2023/12/03 05:16:04;;;;;;;4.53;3.28;;;;;;;19.46;36.78;101910.19;5085930;28;20025;-69
2023/12/03 05:18:30;;;;;;;4.18;3.13;;;;;;;19.45;36.69;101916.47;5031917;28;20135;-69
2023/12/03 05:20:57;;;;;;;3.65;3.10;;;;;;;19.44;36.90;101916.63;5079063;28;20036;-69
2023/12/03 05:23:23;;;;;;;3.53;3.20;;;;;;;19.15;36.74;101875.41;5032850;28;21422;-69
2023/12/03 05:25:48;;;;;;;3.67;3.20;;;;;;;19.41;36.77;101917.75;5071309;28;20632;-69
2023/12/03 05:28:14;;;;;;;3.80;3.40;;;;;;;19.39;36.67;101925.00;5016037;28;20031;-69
2023/12/03 05:30:40;;;;;;;3.28;2.97;;;;;;;19.37;37.04;101923.47;5084485;28;20024;-69
2023/12/03 05:33:05;;;;;;;4.15;3.50;;;;;;;19.34;37.03;101919.31;5012941;28;21161;-69
2023/12/03 05:35:31;;;;;;;4.32;3.15;;;;;;;19.36;36.89;101922.63;5076082;28;20139;-69
2023/12/03 05:37:56;;;;;;;4.05;3.47;;;;;;;19.35;37.00;101922.78;5056148;28;20042;-66
2023/12/03 05:40:22;;;;;;;3.42;3.13;;;;;;;19.35;37.00;101934.19;5063730;28;20040;-67
2023/12/03 05:42:48;;;;;;;3.30;2.80;;;;;;;19.31;37.08;101928.38;5078091;28;20548;-67
2023/12/03 05:45:13;;;;;;;3.38;3.08;;;;;;;19.31;37.15;101931.03;5040060;28;20063;-67
2023/12/03 05:47:40;;;;;;;3.50;3.20;;;;;;;19.31;36.96;101930.19;5086323;28;20044;-67
2023/12/03 05:50:06;;;;;;;3.90;3.40;;;;;;;19.29;37.06;101934.78;5027484;28;20042;-66
2023/12/03 05:52:31;;;;;;;3.65;3.00;;;;;;;19.32;37.10;101943.25;5063437;28;20059;-66
2023/12/03 05:54:57;;;;;;;3.60;3.10;;;;;;;19.27;37.20;101924.38;5084435;28;20036;-67
2023/12/03 05:57:22;;;;;;;3.63;3.00;;;;;;;19.28;37.20;101926.03;5079634;28;20039;-66
2023/12/03 05:59:53;;;;;;;3.55;2.90;;;;;;;19.31;37.10;101943.41;5026852;28;20036;-67
2023/12/03 06:02:19;;;;;;;3.83;3.22;;;;;;;19.30;37.19;101942.56;5081611;28;20098;-67
2023/12/03 06:04:45;;;;;;;3.90;3.28;;;;;;;19.30;37.05;101945.19;5007801;28;20367;-67
2023/12/03 06:07:11;;;;;;;3.55;2.95;;;;;;;19.27;37.21;101939.41;5079558;28;20050;-67
2023/12/03 06:09:36;;;;;;;4.00;3.53;;;;;;;19.30;37.05;101939.91;5023949;28;20044;-67
2023/12/03 06:12:02;;;;;;;3.70;2.95;;;;;;;19.28;37.23;101951.63;5076758;28;20403;-67
2023/12/03 06:14:28;;;;;;;3.70;3.28;;;;;;;19.29;37.11;101950.63;5039341;28;20036;-68
2023/12/03 06:16:53;;;;;;;3.90;3.20;;;;;;;19.22;37.19;101946.94;5077318;28;20110;-67
2023/12/03 06:19:19;;;;;;;3.33;2.97;;;;;;;19.27;37.07;101950.78;5027673;28;20110;-67
2023/12/03 06:21:44;;;;;;;3.78;3.10;;;;;;;19.26;37.10;101954.41;5073727;28;20709;-67
2023/12/03 06:24:10;;;;;;;4.28;2.95;;;;;;;19.22;37.32;101942.50;5031551;28;20040;-67
2023/12/03 06:26:35;;;;;;;3.10;2.80;;;;;;;19.28;37.08;101956.91;5080420;28;20380;-67
2023/12/03 06:29:01;;;;;;;4.25;3.45;;;;;;;19.26;37.37;101956.22;5031908;28;20032;-67
2023/12/03 06:31:27;;;;;;;3.50;2.88;;;;;;;19.25;37.16;101955.38;5083299;28;20033;-69
2023/12/03 06:33:52;;;;;;;3.10;2.80;;;;;;;19.24;37.26;101955.53;5031428;28;20028;-68
2023/12/03 06:36:18;;;;;;;3.80;3.40;;;;;;;19.23;37.14;101956.53;5077756;28;20047;-68
2023/12/03 06:38:44;;;;;;;4.40;3.42;;;;;;;19.24;37.19;101947.63;5015148;28;20048;-68
2023/12/03 06:41:09;;;;;;;3.80;2.92;;;;;;;19.12;37.52;101931.16;5063235;28;20040;-68
2023/12/03 06:43:35;;;;;;;3.20;2.72;;;;;;;19.20;37.18;101935.66;5029229;28;20036;-68
2023/12/03 06:46:01;;;;;;;3.35;2.90;;;;;;;19.24;37.27;101950.25;5080281;28;20040;-68
2023/12/03 06:48:26;;;;;;;2.92;2.63;;;;;;;19.23;37.37;101961.81;5030213;28;20036;-68
2023/12/03 06:50:52;;;;;;;4.00;3.03;;;;;;;19.21;37.12;101959.31;5085042;28;20040;-68
2023/12/03 06:53:18;;;;;;;3.30;2.83;;;;;;;19.21;37.38;101963.72;5031893;28;20055;-68
2023/12/03 06:55:44;;;;;;;3.28;2.97;;;;;;;19.20;37.32;101962.91;5056243;28;20360;-68
2023/12/03 06:58:11;;;;;;;3.63;3.10;;;;;;;19.21;37.31;101967.25;5077805;28;20517;-68
2023/12/03 07:00:37;;;;;;;3.60;3.10;;;;;;;19.20;37.35;101976.09;5024952;28;20510;-67
2023/12/03 07:03:03;;;;;;;3.38;2.97;;;;;;;19.20;37.48;101967.34;5086349;28;20028;-68
2023/12/03 07:05:28;;;;;;;3.33;2.90;;;;;;;19.19;37.29;101981.53;5043506;28;23284;-68
2023/12/03 07:07:54;;;;;;;3.65;3.00;;;;;;;19.27;37.20;101971.09;5086982;28;20067;-68
2023/12/03 07:10:20;;;;;;;3.47;3.00;;;;;;;19.47;36.88;101983.19;5056863;28;20410;-68
2023/12/03 07:12:45;;;;;;;3.03;2.60;;;;;;;20.16;35.89;101981.69;5064645;28;20704;-68
2023/12/03 07:15:11;;;;;;;3.30;2.65;;;;;;;20.80;34.90;101983.91;5080851;28;20055;-68
2023/12/03 07:17:39;;;;;;;3.30;2.90;;;;;;;21.40;33.80;101977.72;5037782;28;20040;-68
2023/12/03 07:20:06;;;;;;;3.75;2.90;;;;;;;21.92;33.06;101980.13;5082089;28;20456;-67
2023/12/03 07:22:31;;;;;;;3.50;2.50;;;;;;;21.75;33.26;101989.88;5031046;28;20456;-68
2023/12/03 07:24:57;;;;;;;2.53;2.33;;;;;;;21.58;33.73;101989.03;5084545;28;20054;-68
2023/12/03 07:27:22;;;;;;;3.10;2.60;;;;;;;21.26;34.35;101996.91;5036863;28;20070;-68
2023/12/03 07:29:52;;;;;;;2.63;2.20;;;;;;;21.09;34.52;102003.91;5083163;28;20028;-68
2023/12/03 07:32:18;;;;;;;3.55;3.00;;;;;;;20.96;35.03;102000.88;5015363;28;20856;-68
2023/12/03 07:34:43;;;;;;;4.07;2.63;;;;;;;20.78;35.26;102004.44;5084720;28;20032;-67
2023/12/03 07:37:09;;;;;;;4.05;2.75;;;;;;;20.64;35.49;102001.53;5035991;28;20032;-68
2023/12/03 07:39:34;;;;;;;2.35;2.15;;;;;;;20.57;35.63;102006.63;5067936;28;20151;-68
2023/12/03 07:42:00;;;;;;;3.03;2.72;;;;;;;20.46;35.82;101999.78;5033371;28;20149;-68
2023/12/03 07:44:25;;;;;;;3.55;2.90;;;;;;;20.36;35.96;101996.38;5083511;28;20569;-68
2023/12/03 07:46:53;;;;;;;3.15;2.80;;;;;;;20.35;36.01;101997.38;5035733;28;20142;-68
2023/12/03 07:49:19;;;;;;;3.83;2.40;;;;;;;20.27;36.12;101994.66;5077239;28;20565;-68
2023/12/03 07:51:47;;;;;;;3.40;2.70;;;;;;;20.27;36.14;102001.75;5033803;28;20043;-69
2023/12/03 07:54:13;;;;;;;2.80;2.50;;;;;;;20.22;36.15;101994.28;5084984;28;20523;-69
2023/12/03 07:56:40;;;;;;;2.97;2.67;;;;;;;20.20;36.17;102007.66;5039383;28;20039;-68
2023/12/03 07:59:06;;;;;;;2.35;2.15;;;;;;;20.07;36.29;102001.09;5080025;28;20068;-69
2023/12/03 08:01:32;;;;;;;3.47;2.65;;;;;;;20.10;36.40;102008.72;5032027;28;20052;-69
2023/12/03 08:03:58;;;;;;;3.00;2.70;;;;;;;20.02;36.45;102012.16;5072633;28;20414;-66
2023/12/03 08:06:24;;;;;;;2.83;2.50;;;;;;;20.03;36.53;102013.81;5080854;28;20039;-66
2023/12/03 08:08:54;;;;;;;2.90;2.50;;;;;;;20.01;36.61;102023.72;5032184;28;20036;-66
2023/12/03 08:11:20;;;;;;;3.38;2.90;;;;;;;19.96;37.04;102027.81;5080832;28;20091;-66
2023/12/03 08:13:46;;;;;;;2.58;2.30;;;;;;;19.95;36.69;102034.06;5030520;28;20039;-66
2023/12/03 08:16:12;;;;;;;3.17;2.80;;;;;;;19.88;36.84;102029.38;5079772;28;20367;-66
2023/12/03 08:18:37;;;;;;;2.97;2.60;;;;;;;19.87;36.75;102032.16;5029240;28;22252;-66
2023/12/03 08:21:03;;;;;;;2.45;2.25;;;;;;;19.84;36.75;102017.44;5079038;28;20028;-67
2023/12/03 08:23:30;;;;;;;3.28;2.55;;;;;;;19.85;36.65;102013.81;5031634;28;20072;-66
2023/12/03 08:25:56;;;;;;;2.50;2.25;;;;;;;19.85;36.70;102020.91;5081698;28;20040;-66
2023/12/03 08:28:22;;;;;;;2.67;2.20;;;;;;;19.88;36.76;102031.19;5024929;28;20090;-66
2023/12/03 08:30:48;;;;;;;3.13;2.58;;;;;;;19.84;36.79;102032.47;5083679;28;20028;-66
2023/12/03 08:33:14;;;;;;;2.60;2.20;;;;;;;19.98;36.48;102031.94;5055184;28;20055;-66
2023/12/03 08:35:41;;;;;;;2.95;2.50;;;;;;;20.22;36.07;102029.50;5058358;28;20032;-66
2023/12/03 08:38:07;;;;;;;3.10;2.58;;;;;;;20.54;35.45;102032.59;5067265;28;20031;-66
2023/12/03 08:40:33;;;;;;;2.78;2.42;;;;;;;20.72;35.06;102038.66;5055238;28;20033;-66
2023/12/03 08:42:59;;;;;;;2.97;2.25;;;;;;;20.70;35.08;102037.97;5085708;28;20047;-68
2023/12/03 08:45:25;;;;;;;2.72;2.20;;;;;;;20.71;35.17;102042.28;5013775;28;20036;-68
2023/12/03 08:47:50;;;;;;;2.78;2.50;;;;;;;20.59;35.44;102046.16;5085034;28;20047;-68
2023/12/03 08:50:16;;;;;;;2.80;2.50;;;;;;;20.50;35.62;102043.47;5040498;28;20051;-67
2023/12/03 08:52:41;;;;;;;2.45;2.25;;;;;;;20.41;35.69;102044.38;5085034;28;20705;-68
2023/12/03 08:55:08;;;;;;;2.20;2.00;;;;;;;20.42;35.71;102045.22;5021066;28;20047;-68
2023/12/03 08:57:34;;;;;;;2.80;2.50;;;;;;;20.37;35.81;102050.13;5085644;28;20047;-68
2023/12/03 09:00:00;;;;;;;2.45;2.25;;;;;;;20.31;35.81;102051.56;5030670;28;20094;-68
2023/12/03 09:02:25;;;;;;;2.95;2.58;;;;;;;20.09;35.98;102026.41;5079602;28;20082;-68
2023/12/03 09:04:51;;;;;;;2.80;2.40;;;;;;;20.25;36.10;102064.56;5031303;28;20457;-68
2023/12/03 09:07:17;;;;;;;2.83;2.50;;;;;;;20.18;36.12;102061.72;5083091;28;20105;-67
2023/12/03 09:09:43;;;;;;;2.88;2.58;;;;;;;20.16;36.06;102063.69;5032981;28;20067;-68
2023/12/03 09:12:09;;;;;;;3.03;2.60;;;;;;;20.12;36.16;102065.78;5075510;28;20452;-68
2023/12/03 09:14:34;;;;;;;3.17;2.80;;;;;;;20.08;36.17;102071.53;5052707;28;20058;-68
2023/12/03 09:17:00;;;;;;;2.40;2.20;;;;;;;20.03;36.28;102071.16;5079463;28;20495;-68
2023/12/03 09:19:26;;;;;;;2.40;2.20;;;;;;;19.95;36.39;102071.09;5036728;28;20177;-68
2023/12/03 09:21:52;;;;;;;3.05;2.40;;;;;;;19.99;36.35;102072.44;5081508;28;20173;-68
2023/12/03 09:24:17;;;;;;;3.10;2.33;;;;;;;19.94;36.38;102064.97;5026903;28;20043;-68
2023/12/03 09:26:45;;;;;;;2.45;2.22;;;;;;;19.90;36.47;102060.94;5078379;28;20028;-68
2023/12/03 09:29:11;;;;;;;2.90;2.40;;;;;;;19.88;36.46;102061.09;5025959;28;20048;-68
2023/12/03 09:31:40;;;;;;;2.53;2.30;;;;;;;19.91;36.48;102062.59;5086978;28;20071;-68
2023/12/03 09:34:07;;;;;;;2.50;2.30;;;;;;;19.97;36.38;102074.41;5031149;28;20512;-68
2023/12/03 09:36:33;;;;;;;2.72;2.13;;;;;;;20.10;36.02;102069.53;5081218;28;20799;-67
2023/12/03 09:38:59;;;;;;;2.50;2.30;;;;;;;20.13;35.75;102053.41;5027609;28;20052;-68
2023/12/03 09:41:25;;;;;;;2.55;2.35;;;;;;;20.29;35.69;102050.91;5093315;28;20115;-68
2023/12/03 09:43:55;;;;;;;2.63;2.40;;;;;;;20.33;35.71;102060.19;5030425;28;20050;-68
2023/12/03 09:46:23;;;;;;;2.97;2.20;;;;;;;20.29;35.67;102058.84;5084240;28;20047;-68
2023/12/03 09:48:50;;;;;;;2.55;2.30;;;;;;;20.28;35.79;102059.78;5029279;28;20106;-68
2023/12/03 09:51:18;;;;;;;2.63;2.40;;;;;;;20.21;35.80;102056.94;5086324;28;20043;-68
2023/12/03 09:53:45;;;;;;;2.53;2.30;;;;;;;20.20;35.90;102060.56;5036968;28;20078;-68
2023/12/03 09:56:12;;;;;;;2.83;2.30;;;;;;;20.15;35.89;102065.50;5078432;28;20032;-68
2023/12/03 09:58:38;;;;;;;2.63;2.35;;;;;;;20.12;35.93;102059.69;5026989;28;20043;-68
2023/12/03 10:01:05;;;;;;;2.40;2.17;;;;;;;20.11;36.00;102060.66;5062186;28;20459;-68
2023/12/03 10:03:31;;;;;;;3.00;2.55;;;;;;;20.06;36.11;102055.81;5027786;28;21020;-68
2023/12/03 10:05:57;;;;;;;2.13;1.92;;;;;;;20.03;36.15;102053.47;5080459;28;20049;-68
2023/12/03 10:08:23;;;;;;;2.22;2.05;;;;;;;19.96;36.17;102051.59;5007511;28;21866;-68
2023/12/03 10:11:10;;;;;;;2.88;2.47;;;;;;;19.94;36.30;102045.63;5082311;28;20101;-67
2023/12/03 10:13:36;;;;;;;2.40;2.15;;;;;;;19.98;36.25;102058.38;5027292;28;20062;-68
2023/12/03 10:16:02;;;;;;;2.30;2.10;;;;;;;19.95;36.19;102057.88;5074460;28;20125;-68
2023/12/03 10:18:27;;;;;;;2.50;2.30;;;;;;;19.92;36.38;102059.81;5031228;28;21774;-68
2023/12/03 10:21:06;;;;;;;2.35;2.15;;;;;;;19.93;36.56;102055.38;5077502;28;20043;-68
2023/12/03 10:23:33;;;;;;;2.67;2.45;;;;;;;19.91;36.40;102060.78;5070687;28;20131;-68
2023/12/03 10:26:15;;;;;;;2.53;2.30;;;;;;;19.88;36.40;102050.50;5082009;28;20066;-68
2023/12/03 10:28:41;;;;;;;2.40;2.20;;;;;;;19.86;36.50;102041.06;5022432;28;20127;-68
2023/12/03 10:31:12;;;;;;;2.92;2.55;;;;;;;19.90;36.43;102037.97;5081276;28;20373;-67
2023/12/03 10:33:38;;;;;;;2.72;2.17;;;;;;;20.04;36.25;102031.34;5028529;28;20638;-67
2023/12/03 10:36:04;;;;;;;2.63;2.15;;;;;;;20.48;35.49;102026.94;5074544;28;20043;-67
2023/12/03 10:38:41;;;;;;;2.35;2.15;;;;;;;20.89;34.79;102019.22;5032949;28;21939;-67
2023/12/03 10:41:13;;;;;;;2.53;2.03;;;;;;;21.11;34.33;102021.31;5070902;28;20815;-67
2023/12/03 10:43:40;;;;;;;3.35;2.22;;;;;;;21.11;34.34;102013.34;5023561;28;22704;-67
2023/12/03 10:46:08;;;;;;;2.40;2.20;;;;;;;20.84;34.92;101988.94;5044855;28;20036;-67
2023/12/03 10:48:34;;;;;;;2.70;2.40;;;;;;;20.98;34.86;102007.66;5027156;28;20041;-67
2023/12/03 10:51:06;;;;;;;2.30;2.10;;;;;;;20.80;35.31;102001.63;5079172;28;20744;-67
2023/12/03 10:53:33;;;;;;;2.30;2.10;;;;;;;20.83;35.16;102003.97;5026238;28;20414;-66
2023/12/03 10:56:02;;;;;;;2.20;2.00;;;;;;;20.73;35.24;101997.97;5072406;28;20036;-66
2023/12/03 10:58:29;;;;;;;2.42;2.03;;;;;;;20.63;35.43;101999.88;5029410;28;20044;-67
2023/12/03 11:01:06;;;;;;;3.72;2.13;;;;;;;20.63;35.56;102007.81;5080470;28;20512;-67
2023/12/03 11:03:55;;;;;;;2.05;1.85;;;;;;;20.58;35.73;101997.72;5024793;28;21248;-67
2023/12/03 11:06:25;;;;;;;2.65;2.30;;;;;;;20.54;35.73;102008.75;5075020;28;20109;-67
2023/12/03 11:08:52;;;;;;;2.03;1.80;;;;;;;20.51;35.79;102002.81;5026338;28;20056;-67
2023/12/03 11:11:22;;;;;;;1.83;1.73;;;;;;;20.42;35.78;101997.59;5079210;28;20796;-67
2023/12/03 11:13:52;;;;;;;2.55;2.20;;;;;;;20.42;35.86;102000.25;5027140;28;20058;-67
2023/12/03 11:16:18;;;;;;;;;;;;;;;20.39;36.06;102008.47;5062693;28;20712;-67
2023/12/03 11:18:51;;;;;;;2.45;2.25;;;;;;;20.29;36.11;101990.06;5025387;28;19927;-66
2023/12/03 11:21:44;;;;;;;2.47;1.88;;;;;;;20.32;35.84;101997.69;5083030;28;20059;-66